sensor_id;sensor_type;location;lat;lon;timestamp;P1;durP1;ratioP1;P2;durP2;ratioP2
35743;SDS011;21867;52.012;4.324;2023-06-05T00:01:36;5.50;;;2.97;;
35743;SDS011;21867;52.012;4.324;2023-06-05T00:04:04;3.77;;;2.47;;
35743;SDS011;21867;52.012;4.324;2023-06-05T00:06:31;4.07;;;2.83;;
35743;SDS011;21867;52.012;4.324;2023-06-05T00:08:59;5.53;;;3.10;;
35743;SDS011;21867;52.012;4.324;2023-06-05T00:11:26;3.43;;;2.63;;
35743;SDS011;21867;52.012;4.324;2023-06-05T00:13:53;4.77;;;2.60;;
35743;SDS011;21867;52.012;4.324;2023-06-05T00:19:23;5.37;;;3.23;;
35743;SDS011;21867;52.012;4.324;2023-06-05T00:21:51;4.77;;;3.40;;
35743;SDS011;21867;52.012;4.324;2023-06-05T00:24:18;4.10;;;3.27;;
35743;SDS011;21867;52.012;4.324;2023-06-05T00:26:46;4.23;;;2.73;;
35743;SDS011;21867;52.012;4.324;2023-06-05T00:29:13;4.70;;;3.40;;
35743;SDS011;21867;52.012;4.324;2023-06-05T00:34:31;5.03;;;3.78;;
35743;SDS011;21867;52.012;4.324;2023-06-05T00:39:59;4.73;;;3.50;;
35743;SDS011;21867;52.012;4.324;2023-06-05T00:42:28;5.17;;;3.13;;
35743;SDS011;21867;52.012;4.324;2023-06-05T00:48:31;4.90;;;3.30;;
35743;SDS011;21867;52.012;4.324;2023-06-05T00:51:01;3.87;;;3.17;;
35743;SDS011;21867;52.012;4.324;2023-06-05T00:53:28;3.87;;;3.33;;
35743;SDS011;21867;52.012;4.324;2023-06-05T01:02:43;4.50;;;3.43;;
35743;SDS011;21867;52.012;4.324;2023-06-05T01:05:10;5.83;;;3.73;;
35743;SDS011;21867;52.012;4.324;2023-06-05T01:07:39;5.32;;;3.60;;
35743;SDS011;21867;52.012;4.324;2023-06-05T01:10:07;8.00;;;3.80;;
35743;SDS011;21867;52.012;4.324;2023-06-05T01:12:36;5.90;;;3.50;;
35743;SDS011;21867;52.012;4.324;2023-06-05T01:17:59;5.60;;;3.97;;
35743;SDS011;21867;52.012;4.324;2023-06-05T01:20:34;4.47;;;3.63;;
35743;SDS011;21867;52.012;4.324;2023-06-05T01:23:03;4.30;;;3.60;;
35743;SDS011;21867;52.012;4.324;2023-06-05T01:31:53;3.80;;;3.50;;
35743;SDS011;21867;52.012;4.324;2023-06-05T01:34:23;4.97;;;4.20;;
35743;SDS011;21867;52.012;4.324;2023-06-05T01:36:51;7.10;;;4.17;;
35743;SDS011;21867;52.012;4.324;2023-06-05T01:39:20;4.37;;;3.97;;
35743;SDS011;21867;52.012;4.324;2023-06-05T01:41:48;6.40;;;4.77;;
35743;SDS011;21867;52.012;4.324;2023-06-05T01:52:31;7.67;;;4.40;;
35743;SDS011;21867;52.012;4.324;2023-06-05T01:58:47;8.00;;;4.40;;
35743;SDS011;21867;52.012;4.324;2023-06-05T02:01:15;6.33;;;4.33;;
35743;SDS011;21867;52.012;4.324;2023-06-05T02:03:42;5.23;;;4.10;;
35743;SDS011;21867;52.012;4.324;2023-06-05T02:06:09;5.17;;;4.50;;
35743;SDS011;21867;52.012;4.324;2023-06-05T02:08:37;5.70;;;4.53;;
35743;SDS011;21867;52.012;4.324;2023-06-05T02:11:05;6.83;;;4.60;;
35743;SDS011;21867;52.012;4.324;2023-06-05T02:30:29;6.63;;;4.67;;
35743;SDS011;21867;52.012;4.324;2023-06-05T02:32:56;5.00;;;4.60;;
35743;SDS011;21867;52.012;4.324;2023-06-05T02:35:24;7.10;;;5.37;;
35743;SDS011;21867;52.012;4.324;2023-06-05T02:37:52;5.67;;;4.47;;
35743;SDS011;21867;52.012;4.324;2023-06-05T02:40:19;4.20;;;3.80;;
35743;SDS011;21867;52.012;4.324;2023-06-05T02:42:47;5.80;;;4.20;;
35743;SDS011;21867;52.012;4.324;2023-06-05T02:45:18;6.57;;;4.83;;
35743;SDS011;21867;52.012;4.324;2023-06-05T02:47:47;9.60;;;5.07;;
35743;SDS011;21867;52.012;4.324;2023-06-05T02:50:15;5.20;;;4.70;;
35743;SDS011;21867;52.012;4.324;2023-06-05T02:52:48;7.83;;;5.20;;
35743;SDS011;21867;52.012;4.324;2023-06-05T03:02:33;5.57;;;4.83;;
35743;SDS011;21867;52.012;4.324;2023-06-05T03:05:02;5.50;;;4.57;;
35743;SDS011;21867;52.012;4.324;2023-06-05T03:07:31;6.33;;;4.83;;
35743;SDS011;21867;52.012;4.324;2023-06-05T03:09:58;5.50;;;4.90;;
35743;SDS011;21867;52.012;4.324;2023-06-05T03:12:25;7.43;;;4.70;;
35743;SDS011;21867;52.012;4.324;2023-06-05T03:18:07;5.30;;;4.77;;
35743;SDS011;21867;52.012;4.324;2023-06-05T03:20:37;8.43;;;4.93;;
35743;SDS011;21867;52.012;4.324;2023-06-05T03:23:05;5.43;;;4.80;;
35743;SDS011;21867;52.012;4.324;2023-06-05T03:29:09;6.37;;;4.83;;
35743;SDS011;21867;52.012;4.324;2023-06-05T03:31:37;5.87;;;5.07;;
35743;SDS011;21867;52.012;4.324;2023-06-05T03:34:05;7.43;;;5.17;;
35743;SDS011;21867;52.012;4.324;2023-06-05T03:36:41;5.40;;;4.83;;
35743;SDS011;21867;52.012;4.324;2023-06-05T03:45:19;5.70;;;4.80;;
35743;SDS011;21867;52.012;4.324;2023-06-05T03:47:48;5.47;;;4.73;;
35743;SDS011;21867;52.012;4.324;2023-06-05T03:50:17;4.27;;;3.87;;
35743;SDS011;21867;52.012;4.324;2023-06-05T03:52:46;5.40;;;4.43;;
35743;SDS011;21867;52.012;4.324;2023-06-05T03:55:13;5.80;;;4.77;;
35743;SDS011;21867;52.012;4.324;2023-06-05T03:57:41;9.47;;;4.30;;
35743;SDS011;21867;52.012;4.324;2023-06-05T04:04:18;7.43;;;4.70;;
35743;SDS011;21867;52.012;4.324;2023-06-05T04:06:46;7.40;;;5.00;;
35743;SDS011;21867;52.012;4.324;2023-06-05T04:09:15;4.93;;;4.43;;
35743;SDS011;21867;52.012;4.324;2023-06-05T04:11:43;6.17;;;4.10;;
35743;SDS011;21867;52.012;4.324;2023-06-05T04:14:11;6.53;;;4.50;;
35743;SDS011;21867;52.012;4.324;2023-06-05T04:16:39;3.97;;;3.50;;
35743;SDS011;21867;52.012;4.324;2023-06-05T04:19:13;8.63;;;4.43;;
35743;SDS011;21867;52.012;4.324;2023-06-05T04:21:43;6.20;;;4.37;;
35743;SDS011;21867;52.012;4.324;2023-06-05T04:24:11;4.93;;;4.03;;
35743;SDS011;21867;52.012;4.324;2023-06-05T04:26:40;7.17;;;3.80;;
35743;SDS011;21867;52.012;4.324;2023-06-05T04:35:34;5.32;;;4.40;;
35743;SDS011;21867;52.012;4.324;2023-06-05T04:38:01;6.13;;;3.77;;
35743;SDS011;21867;52.012;4.324;2023-06-05T04:40:29;6.10;;;4.30;;
35743;SDS011;21867;52.012;4.324;2023-06-05T04:42:58;7.80;;;3.67;;
35743;SDS011;21867;52.012;4.324;2023-06-05T04:45:26;8.07;;;3.67;;
35743;SDS011;21867;52.012;4.324;2023-06-05T04:47:53;4.00;;;3.63;;
35743;SDS011;21867;52.012;4.324;2023-06-05T04:50:22;6.27;;;3.50;;
35743;SDS011;21867;52.012;4.324;2023-06-05T04:52:51;7.03;;;3.63;;
35743;SDS011;21867;52.012;4.324;2023-06-05T04:55:19;7.13;;;4.03;;
35743;SDS011;21867;52.012;4.324;2023-06-05T04:58:10;5.57;;;3.10;;
35743;SDS011;21867;52.012;4.324;2023-06-05T05:03:33;7.00;;;3.70;;
35743;SDS011;21867;52.012;4.324;2023-06-05T05:06:01;10.30;;;3.57;;
35743;SDS011;21867;52.012;4.324;2023-06-05T05:08:28;7.93;;;4.28;;
35743;SDS011;21867;52.012;4.324;2023-06-05T05:10:56;7.53;;;4.20;;
35743;SDS011;21867;52.012;4.324;2023-06-05T05:13:25;7.93;;;4.03;;
35743;SDS011;21867;52.012;4.324;2023-06-05T05:15:53;9.90;;;4.07;;
35743;SDS011;21867;52.012;4.324;2023-06-05T05:18:32;4.63;;;3.27;;
35743;SDS011;21867;52.012;4.324;2023-06-05T05:21:00;2.50;;;2.30;;
35743;SDS011;21867;52.012;4.324;2023-06-05T05:23:28;7.23;;;3.80;;
35743;SDS011;21867;52.012;4.324;2023-06-05T05:25:55;13.93;;;3.90;;
35743;SDS011;21867;52.012;4.324;2023-06-05T05:34:48;5.27;;;3.33;;
35743;SDS011;21867;52.012;4.324;2023-06-05T05:45:43;8.20;;;3.73;;
35743;SDS011;21867;52.012;4.324;2023-06-05T05:48:11;5.53;;;4.47;;
35743;SDS011;21867;52.012;4.324;2023-06-05T05:50:40;6.60;;;4.13;;
35743;SDS011;21867;52.012;4.324;2023-06-05T05:53:08;9.57;;;4.23;;
35743;SDS011;21867;52.012;4.324;2023-06-05T05:58:18;9.00;;;4.00;;
35743;SDS011;21867;52.012;4.324;2023-06-05T06:00:46;7.20;;;4.07;;
35743;SDS011;21867;52.012;4.324;2023-06-05T06:03:13;7.23;;;4.20;;
35743;SDS011;21867;52.012;4.324;2023-06-05T06:11:26;5.23;;;4.17;;
35743;SDS011;21867;52.012;4.324;2023-06-05T06:13:53;4.77;;;3.67;;
35743;SDS011;21867;52.012;4.324;2023-06-05T06:16:21;5.77;;;4.03;;
35743;SDS011;21867;52.012;4.324;2023-06-05T06:18:48;5.70;;;3.73;;
35743;SDS011;21867;52.012;4.324;2023-06-05T06:21:22;5.33;;;3.73;;
35743;SDS011;21867;52.012;4.324;2023-06-05T06:23:50;5.63;;;3.97;;
35743;SDS011;21867;52.012;4.324;2023-06-05T06:29:08;5.67;;;4.10;;
35743;SDS011;21867;52.012;4.324;2023-06-05T06:34:50;3.80;;;3.47;;
35743;SDS011;21867;52.012;4.324;2023-06-05T06:37:17;9.33;;;3.93;;
35743;SDS011;21867;52.012;4.324;2023-06-05T06:39:48;5.60;;;3.33;;
35743;SDS011;21867;52.012;4.324;2023-06-05T06:47:42;5.93;;;3.20;;
35743;SDS011;21867;52.012;4.324;2023-06-05T06:50:30;4.43;;;3.47;;
35743;SDS011;21867;52.012;4.324;2023-06-05T06:52:57;4.37;;;3.63;;
35743;SDS011;21867;52.012;4.324;2023-06-05T06:55:24;4.20;;;3.80;;
35743;SDS011;21867;52.012;4.324;2023-06-05T06:57:52;10.20;;;4.23;;
35743;SDS011;21867;52.012;4.324;2023-06-05T07:00:19;4.67;;;3.47;;
35743;SDS011;21867;52.012;4.324;2023-06-05T07:03:05;7.20;;;3.70;;
35743;SDS011;21867;52.012;4.324;2023-06-05T07:05:33;5.03;;;3.73;;
35743;SDS011;21867;52.012;4.324;2023-06-05T07:08:04;6.87;;;3.90;;
35743;SDS011;21867;52.012;4.324;2023-06-05T07:10:43;8.60;;;3.93;;
35743;SDS011;21867;52.012;4.324;2023-06-05T07:16:18;5.57;;;2.73;;
35743;SDS011;21867;52.012;4.324;2023-06-05T07:18:47;6.53;;;3.60;;
35743;SDS011;21867;52.012;4.324;2023-06-05T07:21:14;6.20;;;3.40;;
35743;SDS011;21867;52.012;4.324;2023-06-05T07:23:42;8.10;;;3.50;;
35743;SDS011;21867;52.012;4.324;2023-06-05T07:26:09;6.20;;;4.27;;
35743;SDS011;21867;52.012;4.324;2023-06-05T07:28:36;7.55;;;4.32;;
35743;SDS011;21867;52.012;4.324;2023-06-05T07:31:09;7.33;;;3.57;;
35743;SDS011;21867;52.012;4.324;2023-06-05T07:33:37;4.80;;;3.90;;
35743;SDS011;21867;52.012;4.324;2023-06-05T07:36:05;15.37;;;4.17;;
35743;SDS011;21867;52.012;4.324;2023-06-05T07:38:33;32.10;;;4.43;;
35743;SDS011;21867;52.012;4.324;2023-06-05T07:47:45;12.30;;;3.97;;
35743;SDS011;21867;52.012;4.324;2023-06-05T07:50:12;7.67;;;3.53;;
35743;SDS011;21867;52.012;4.324;2023-06-05T07:52:41;8.00;;;3.83;;
35743;SDS011;21867;52.012;4.324;2023-06-05T07:55:09;3.97;;;3.33;;
35743;SDS011;21867;52.012;4.324;2023-06-05T07:57:37;7.70;;;3.10;;
35743;SDS011;21867;52.012;4.324;2023-06-05T08:02:46;3.33;;;2.97;;
35743;SDS011;21867;52.012;4.324;2023-06-05T08:05:13;6.50;;;3.60;;
35743;SDS011;21867;52.012;4.324;2023-06-05T08:07:42;4.70;;;3.80;;
35743;SDS011;21867;52.012;4.324;2023-06-05T08:10:10;5.13;;;3.93;;
35743;SDS011;21867;52.012;4.324;2023-06-05T08:21:52;9.20;;;4.00;;
35743;SDS011;21867;52.012;4.324;2023-06-05T08:33:05;9.70;;;5.07;;
35743;SDS011;21867;52.012;4.324;2023-06-05T08:35:33;8.93;;;5.27;;
35743;SDS011;21867;52.012;4.324;2023-06-05T08:49:17;7.50;;;3.80;;
35743;SDS011;21867;52.012;4.324;2023-06-05T08:51:49;6.87;;;3.30;;
35743;SDS011;21867;52.012;4.324;2023-06-05T08:54:16;7.07;;;3.63;;
35743;SDS011;21867;52.012;4.324;2023-06-05T08:56:44;10.27;;;4.07;;
35743;SDS011;21867;52.012;4.324;2023-06-05T08:59:13;4.20;;;3.67;;
35743;SDS011;21867;52.012;4.324;2023-06-05T09:04:31;5.30;;;3.60;;
35743;SDS011;21867;52.012;4.324;2023-06-05T09:06:59;6.00;;;3.77;;
35743;SDS011;21867;52.012;4.324;2023-06-05T09:09:26;5.10;;;3.30;;
35743;SDS011;21867;52.012;4.324;2023-06-05T09:15:41;7.47;;;3.60;;
35743;SDS011;21867;52.012;4.324;2023-06-05T09:18:09;5.23;;;3.73;;
35743;SDS011;21867;52.012;4.324;2023-06-05T09:20:38;3.97;;;3.27;;
35743;SDS011;21867;52.012;4.324;2023-06-05T09:23:20;5.27;;;3.20;;
35743;SDS011;21867;52.012;4.324;2023-06-05T09:25:52;5.03;;;3.47;;
35743;SDS011;21867;52.012;4.324;2023-06-05T09:28:19;6.47;;;3.67;;
35743;SDS011;21867;52.012;4.324;2023-06-05T09:30:53;3.77;;;3.23;;
35743;SDS011;21867;52.012;4.324;2023-06-05T09:33:20;3.40;;;3.10;;
35743;SDS011;21867;52.012;4.324;2023-06-05T09:36:02;5.30;;;3.23;;
35743;SDS011;21867;52.012;4.324;2023-06-05T09:38:29;9.13;;;3.37;;
35743;SDS011;21867;52.012;4.324;2023-06-05T09:44:08;4.63;;;2.93;;
35743;SDS011;21867;52.012;4.324;2023-06-05T09:47:48;4.20;;;3.80;;
35743;SDS011;21867;52.012;4.324;2023-06-05T09:50:23;5.33;;;2.93;;
35743;SDS011;21867;52.012;4.324;2023-06-05T09:52:52;6.63;;;3.50;;
35743;SDS011;21867;52.012;4.324;2023-06-05T10:00:46;8.20;;;2.93;;
35743;SDS011;21867;52.012;4.324;2023-06-05T10:03:14;5.30;;;3.27;;
35743;SDS011;21867;52.012;4.324;2023-06-05T10:05:42;5.63;;;3.53;;
35743;SDS011;21867;52.012;4.324;2023-06-05T10:08:12;5.80;;;4.13;;
35743;SDS011;21867;52.012;4.324;2023-06-05T10:13:38;3.07;;;2.77;;
35743;SDS011;21867;52.012;4.324;2023-06-05T10:17:00;3.73;;;3.00;;
35743;SDS011;21867;52.012;4.324;2023-06-05T10:19:29;4.10;;;2.73;;
35743;SDS011;21867;52.012;4.324;2023-06-05T10:21:56;4.23;;;3.40;;
35743;SDS011;21867;52.012;4.324;2023-06-05T10:24:26;3.07;;;2.77;;
35743;SDS011;21867;52.012;4.324;2023-06-05T10:27:02;3.40;;;2.83;;
35743;SDS011;21867;52.012;4.324;2023-06-05T10:40:42;4.93;;;2.77;;
35743;SDS011;21867;52.012;4.324;2023-06-05T10:43:28;4.97;;;3.67;;
35743;SDS011;21867;52.012;4.324;2023-06-05T10:52:39;4.50;;;3.20;;
35743;SDS011;21867;52.012;4.324;2023-06-05T10:55:06;5.77;;;2.87;;
35743;SDS011;21867;52.012;4.324;2023-06-05T11:08:38;9.53;;;3.27;;
35743;SDS011;21867;52.012;4.324;2023-06-05T11:11:06;5.37;;;3.33;;
35743;SDS011;21867;52.012;4.324;2023-06-05T11:13:52;3.60;;;2.43;;
35743;SDS011;21867;52.012;4.324;2023-06-05T11:16:26;7.17;;;3.40;;
35743;SDS011;21867;52.012;4.324;2023-06-05T11:29:32;6.60;;;3.10;;
35743;SDS011;21867;52.012;4.324;2023-06-05T11:32:00;6.30;;;2.88;;
35743;SDS011;21867;52.012;4.324;2023-06-05T11:34:27;7.60;;;2.73;;
35743;SDS011;21867;52.012;4.324;2023-06-05T11:36:55;6.10;;;3.57;;
35743;SDS011;21867;52.012;4.324;2023-06-05T11:39:41;3.57;;;2.40;;
35743;SDS011;21867;52.012;4.324;2023-06-05T11:42:09;10.00;;;3.07;;
35743;SDS011;21867;52.012;4.324;2023-06-05T11:44:37;6.80;;;2.90;;
35743;SDS011;21867;52.012;4.324;2023-06-05T11:47:05;7.80;;;2.63;;
35743;SDS011;21867;52.012;4.324;2023-06-05T11:52:37;5.57;;;3.00;;
35743;SDS011;21867;52.012;4.324;2023-06-05T11:57:54;3.60;;;2.43;;
35743;SDS011;21867;52.012;4.324;2023-06-05T12:00:23;5.13;;;2.50;;
35743;SDS011;21867;52.012;4.324;2023-06-05T12:02:51;3.17;;;2.53;;
35743;SDS011;21867;52.012;4.324;2023-06-05T12:05:18;7.03;;;2.97;;
35743;SDS011;21867;52.012;4.324;2023-06-05T12:07:46;5.00;;;2.50;;
35743;SDS011;21867;52.012;4.324;2023-06-05T12:10:13;5.30;;;2.57;;
35743;SDS011;21867;52.012;4.324;2023-06-05T12:12:49;3.97;;;2.57;;
35743;SDS011;21867;52.012;4.324;2023-06-05T12:15:16;7.23;;;2.70;;
35743;SDS011;21867;52.012;4.324;2023-06-05T12:17:52;5.20;;;2.40;;
35743;SDS011;21867;52.012;4.324;2023-06-05T12:24:08;6.83;;;2.17;;
35743;SDS011;21867;52.012;4.324;2023-06-05T12:26:51;3.87;;;2.43;;
35743;SDS011;21867;52.012;4.324;2023-06-05T12:29:19;7.70;;;3.60;;
35743;SDS011;21867;52.012;4.324;2023-06-05T12:31:47;6.10;;;2.73;;
35743;SDS011;21867;52.012;4.324;2023-06-05T12:34:16;5.47;;;3.63;;
35743;SDS011;21867;52.012;4.324;2023-06-05T12:36:44;3.30;;;2.63;;
35743;SDS011;21867;52.012;4.324;2023-06-05T12:56:07;3.03;;;2.50;;
35743;SDS011;21867;52.012;4.324;2023-06-05T12:58:35;8.90;;;2.90;;
35743;SDS011;21867;52.012;4.324;2023-06-05T13:01:02;4.10;;;3.00;;
35743;SDS011;21867;52.012;4.324;2023-06-05T13:03:29;6.53;;;2.30;;
35743;SDS011;21867;52.012;4.324;2023-06-05T13:05:57;13.13;;;2.70;;
35743;SDS011;21867;52.012;4.324;2023-06-05T13:08:37;9.77;;;3.13;;
35743;SDS011;21867;52.012;4.324;2023-06-05T13:11:05;6.13;;;2.83;;
35743;SDS011;21867;52.012;4.324;2023-06-05T13:13:35;6.00;;;2.77;;
35743;SDS011;21867;52.012;4.324;2023-06-05T13:16:03;6.40;;;3.07;;
35743;SDS011;21867;52.012;4.324;2023-06-05T13:21:41;7.23;;;2.70;;
35743;SDS011;21867;52.012;4.324;2023-06-05T13:24:23;8.53;;;2.70;;
35743;SDS011;21867;52.012;4.324;2023-06-05T13:26:51;4.67;;;2.90;;
35743;SDS011;21867;52.012;4.324;2023-06-05T13:29:19;2.90;;;2.40;;
35743;SDS011;21867;52.012;4.324;2023-06-05T13:31:47;6.50;;;2.77;;
35743;SDS011;21867;52.012;4.324;2023-06-05T13:34:14;4.17;;;2.33;;
35743;SDS011;21867;52.012;4.324;2023-06-05T13:36:41;4.33;;;2.90;;
35743;SDS011;21867;52.012;4.324;2023-06-05T13:39:09;3.37;;;2.00;;
35743;SDS011;21867;52.012;4.324;2023-06-05T13:41:36;3.40;;;2.60;;
35743;SDS011;21867;52.012;4.324;2023-06-05T13:44:03;5.77;;;2.43;;
35743;SDS011;21867;52.012;4.324;2023-06-05T13:46:32;7.20;;;2.60;;
35743;SDS011;21867;52.012;4.324;2023-06-05T13:55:50;8.47;;;3.20;;
35743;SDS011;21867;52.012;4.324;2023-06-05T13:58:20;10.47;;;3.47;;
35743;SDS011;21867;52.012;4.324;2023-06-05T14:00:47;7.10;;;3.50;;
35743;SDS011;21867;52.012;4.324;2023-06-05T14:03:16;4.10;;;3.13;;
35743;SDS011;21867;52.012;4.324;2023-06-05T14:05:44;9.97;;;3.27;;
35743;SDS011;21867;52.012;4.324;2023-06-05T14:08:11;8.40;;;3.73;;
35743;SDS011;21867;52.012;4.324;2023-06-05T14:10:39;5.13;;;2.40;;
35743;SDS011;21867;52.012;4.324;2023-06-05T14:13:06;5.43;;;2.77;;
35743;SDS011;21867;52.012;4.324;2023-06-05T14:15:34;5.43;;;2.50;;
35743;SDS011;21867;52.012;4.324;2023-06-05T14:21:50;4.63;;;3.47;;
35743;SDS011;21867;52.012;4.324;2023-06-05T14:24:18;5.10;;;2.80;;
35743;SDS011;21867;52.012;4.324;2023-06-05T14:26:46;3.97;;;2.63;;
35743;SDS011;21867;52.012;4.324;2023-06-05T14:29:13;6.30;;;2.87;;
35743;SDS011;21867;52.012;4.324;2023-06-05T14:31:41;6.63;;;3.27;;
35743;SDS011;21867;52.012;4.324;2023-06-05T14:34:09;6.93;;;3.03;;
35743;SDS011;21867;52.012;4.324;2023-06-05T14:39:27;9.93;;;2.90;;
35743;SDS011;21867;52.012;4.324;2023-06-05T14:41:54;4.67;;;2.70;;
35743;SDS011;21867;52.012;4.324;2023-06-05T14:44:22;7.97;;;3.27;;
35743;SDS011;21867;52.012;4.324;2023-06-05T14:46:52;10.73;;;3.63;;
35743;SDS011;21867;52.012;4.324;2023-06-05T14:49:20;9.07;;;3.73;;
35743;SDS011;21867;52.012;4.324;2023-06-05T14:51:48;9.30;;;3.73;;
35743;SDS011;21867;52.012;4.324;2023-06-05T14:54:23;5.53;;;2.93;;
35743;SDS011;21867;52.012;4.324;2023-06-05T14:56:52;7.47;;;3.20;;
35743;SDS011;21867;52.012;4.324;2023-06-05T14:59:19;6.13;;;3.17;;
35743;SDS011;21867;52.012;4.324;2023-06-05T15:01:49;5.33;;;3.20;;
35743;SDS011;21867;52.012;4.324;2023-06-05T15:04:16;6.40;;;3.47;;
35743;SDS011;21867;52.012;4.324;2023-06-05T15:06:56;9.10;;;3.77;;
35743;SDS011;21867;52.012;4.324;2023-06-05T15:09:23;7.43;;;3.80;;
35743;SDS011;21867;52.012;4.324;2023-06-05T15:11:52;11.23;;;3.23;;
35743;SDS011;21867;52.012;4.324;2023-06-05T15:14:19;10.43;;;4.17;;
35743;SDS011;21867;52.012;4.324;2023-06-05T15:16:47;9.80;;;3.80;;
35743;SDS011;21867;52.012;4.324;2023-06-05T15:19:14;5.17;;;3.17;;
35743;SDS011;21867;52.012;4.324;2023-06-05T15:21:46;6.80;;;3.83;;
35743;SDS011;21867;52.012;4.324;2023-06-05T15:24:14;6.80;;;3.83;;
35743;SDS011;21867;52.012;4.324;2023-06-05T15:26:41;7.03;;;3.10;;
35743;SDS011;21867;52.012;4.324;2023-06-05T15:29:10;5.73;;;3.33;;
35743;SDS011;21867;52.012;4.324;2023-06-05T15:31:41;7.97;;;2.83;;
35743;SDS011;21867;52.012;4.324;2023-06-05T15:37:44;9.90;;;3.17;;
35743;SDS011;21867;52.012;4.324;2023-06-05T15:40:11;8.50;;;3.10;;
35743;SDS011;21867;52.012;4.324;2023-06-05T15:42:39;9.20;;;3.97;;
35743;SDS011;21867;52.012;4.324;2023-06-05T15:45:11;4.83;;;3.37;;
35743;SDS011;21867;52.012;4.324;2023-06-05T15:47:39;5.10;;;2.83;;
35743;SDS011;21867;52.012;4.324;2023-06-05T15:50:07;6.40;;;3.03;;
35743;SDS011;21867;52.012;4.324;2023-06-05T15:52:35;10.83;;;3.30;;
35743;SDS011;21867;52.012;4.324;2023-06-05T15:55:04;3.93;;;2.80;;
35743;SDS011;21867;52.012;4.324;2023-06-05T15:57:31;6.53;;;3.87;;
35743;SDS011;21867;52.012;4.324;2023-06-05T15:59:58;4.50;;;3.20;;
35743;SDS011;21867;52.012;4.324;2023-06-05T16:02:27;9.30;;;2.80;;
35743;SDS011;21867;52.012;4.324;2023-06-05T16:05:05;6.57;;;3.03;;
35743;SDS011;21867;52.012;4.324;2023-06-05T16:07:33;15.50;;;4.50;;
35743;SDS011;21867;52.012;4.324;2023-06-05T16:10:00;5.57;;;2.97;;
35743;SDS011;21867;52.012;4.324;2023-06-05T16:12:27;7.43;;;3.37;;
35743;SDS011;21867;52.012;4.324;2023-06-05T16:15:01;9.27;;;3.80;;
35743;SDS011;21867;52.012;4.324;2023-06-05T16:17:29;7.53;;;3.17;;
35743;SDS011;21867;52.012;4.324;2023-06-05T16:19:57;4.20;;;2.80;;
35743;SDS011;21867;52.012;4.324;2023-06-05T16:22:24;10.00;;;3.37;;
35743;SDS011;21867;52.012;4.324;2023-06-05T16:24:52;6.57;;;3.33;;
35743;SDS011;21867;52.012;4.324;2023-06-05T16:27:19;6.43;;;3.00;;
35743;SDS011;21867;52.012;4.324;2023-06-05T16:29:47;4.73;;;2.50;;
35743;SDS011;21867;52.012;4.324;2023-06-05T16:32:14;5.17;;;3.10;;
35743;SDS011;21867;52.012;4.324;2023-06-05T16:34:43;6.20;;;3.13;;
35743;SDS011;21867;52.012;4.324;2023-06-05T16:37:10;7.13;;;3.23;;
35743;SDS011;21867;52.012;4.324;2023-06-05T16:39:38;4.27;;;2.70;;
35743;SDS011;21867;52.012;4.324;2023-06-05T16:42:05;5.80;;;3.17;;
35743;SDS011;21867;52.012;4.324;2023-06-05T16:44:33;6.83;;;3.03;;
35743;SDS011;21867;52.012;4.324;2023-06-05T16:47:01;4.63;;;2.77;;
35743;SDS011;21867;52.012;4.324;2023-06-05T16:49:28;4.17;;;2.77;;
35743;SDS011;21867;52.012;4.324;2023-06-05T16:51:57;4.67;;;3.00;;
35743;SDS011;21867;52.012;4.324;2023-06-05T16:54:24;7.73;;;3.43;;
35743;SDS011;21867;52.012;4.324;2023-06-05T16:56:52;5.00;;;3.03;;
35743;SDS011;21867;52.012;4.324;2023-06-05T16:59:20;8.27;;;3.67;;
35743;SDS011;21867;52.012;4.324;2023-06-05T17:01:47;11.10;;;3.50;;
35743;SDS011;21867;52.012;4.324;2023-06-05T17:04:15;8.00;;;3.70;;
35743;SDS011;21867;52.012;4.324;2023-06-05T17:06:43;7.83;;;3.77;;
35743;SDS011;21867;52.012;4.324;2023-06-05T17:09:13;5.93;;;3.13;;
35743;SDS011;21867;52.012;4.324;2023-06-05T17:11:40;3.93;;;2.87;;
35743;SDS011;21867;52.012;4.324;2023-06-05T17:14:08;7.60;;;3.00;;
35743;SDS011;21867;52.012;4.324;2023-06-05T17:16:35;5.33;;;3.67;;
35743;SDS011;21867;52.012;4.324;2023-06-05T17:19:03;6.57;;;3.13;;
35743;SDS011;21867;52.012;4.324;2023-06-05T17:21:31;7.83;;;3.03;;
35743;SDS011;21867;52.012;4.324;2023-06-05T17:23:58;5.70;;;3.27;;
35743;SDS011;21867;52.012;4.324;2023-06-05T17:26:27;8.73;;;2.97;;
35743;SDS011;21867;52.012;4.324;2023-06-05T17:28:55;9.57;;;3.60;;
35743;SDS011;21867;52.012;4.324;2023-06-05T17:31:23;7.13;;;3.20;;
35743;SDS011;21867;52.012;4.324;2023-06-05T17:33:51;10.00;;;3.17;;
35743;SDS011;21867;52.012;4.324;2023-06-05T17:39:08;9.57;;;3.83;;
35743;SDS011;21867;52.012;4.324;2023-06-05T17:41:37;9.13;;;3.80;;
35743;SDS011;21867;52.012;4.324;2023-06-05T17:44:05;6.90;;;3.40;;
35743;SDS011;21867;52.012;4.324;2023-06-05T17:46:32;10.27;;;3.40;;
35743;SDS011;21867;52.012;4.324;2023-06-05T17:48:59;7.40;;;3.20;;
35743;SDS011;21867;52.012;4.324;2023-06-05T17:51:36;9.43;;;3.47;;
35743;SDS011;21867;52.012;4.324;2023-06-05T17:54:16;5.30;;;2.67;;
35743;SDS011;21867;52.012;4.324;2023-06-05T17:57:00;9.57;;;3.03;;
35743;SDS011;21867;52.012;4.324;2023-06-05T17:59:28;6.03;;;2.93;;
35743;SDS011;21867;52.012;4.324;2023-06-05T18:01:55;5.70;;;2.63;;
35743;SDS011;21867;52.012;4.324;2023-06-05T18:04:23;5.73;;;3.07;;
35743;SDS011;21867;52.012;4.324;2023-06-05T18:10:26;8.77;;;3.27;;
35743;SDS011;21867;52.012;4.324;2023-06-05T18:12:55;7.87;;;3.23;;
35743;SDS011;21867;52.012;4.324;2023-06-05T18:15:22;8.37;;;3.10;;
35743;SDS011;21867;52.012;4.324;2023-06-05T18:17:49;7.97;;;3.53;;
35743;SDS011;21867;52.012;4.324;2023-06-05T18:20:17;5.80;;;2.80;;
35743;SDS011;21867;52.012;4.324;2023-06-05T18:54:28;7.50;;;3.03;;
35743;SDS011;21867;52.012;4.324;2023-06-05T19:08:07;8.03;;;3.50;;
35743;SDS011;21867;52.012;4.324;2023-06-05T19:10:36;6.47;;;3.13;;
35743;SDS011;21867;52.012;4.324;2023-06-05T19:13:03;7.13;;;3.30;;
35743;SDS011;21867;52.012;4.324;2023-06-05T19:15:31;10.37;;;4.10;;
35743;SDS011;21867;52.012;4.324;2023-06-05T19:17:59;5.63;;;2.90;;
35743;SDS011;21867;52.012;4.324;2023-06-05T19:20:26;5.93;;;2.93;;
35743;SDS011;21867;52.012;4.324;2023-06-05T19:22:53;7.33;;;2.97;;
35743;SDS011;21867;52.012;4.324;2023-06-05T19:25:20;11.93;;;4.23;;
35743;SDS011;21867;52.012;4.324;2023-06-05T19:27:49;8.77;;;3.23;;
35743;SDS011;21867;52.012;4.324;2023-06-05T19:30:16;5.87;;;3.23;;
35743;SDS011;21867;52.012;4.324;2023-06-05T19:32:44;12.17;;;3.53;;
35743;SDS011;21867;52.012;4.324;2023-06-05T19:38:08;7.77;;;3.03;;
35743;SDS011;21867;52.012;4.324;2023-06-05T19:40:35;8.23;;;2.87;;
35743;SDS011;21867;52.012;4.324;2023-06-05T19:43:04;6.90;;;2.90;;
35743;SDS011;21867;52.012;4.324;2023-06-05T19:45:32;7.60;;;3.80;;
35743;SDS011;21867;52.012;4.324;2023-06-05T19:47:59;8.07;;;2.97;;
35743;SDS011;21867;52.012;4.324;2023-06-05T19:50:27;6.13;;;3.30;;
35743;SDS011;21867;52.012;4.324;2023-06-05T19:56:42;5.67;;;2.93;;
35743;SDS011;21867;52.012;4.324;2023-06-05T19:59:12;6.67;;;3.10;;
35743;SDS011;21867;52.012;4.324;2023-06-05T20:01:39;9.00;;;3.23;;
35743;SDS011;21867;52.012;4.324;2023-06-05T20:04:07;11.87;;;3.27;;
35743;SDS011;21867;52.012;4.324;2023-06-05T20:06:34;7.20;;;3.17;;
35743;SDS011;21867;52.012;4.324;2023-06-05T20:09:02;10.47;;;3.30;;
35743;SDS011;21867;52.012;4.324;2023-06-05T20:11:34;9.13;;;3.10;;
35743;SDS011;21867;52.012;4.324;2023-06-05T20:14:02;9.67;;;3.93;;
35743;SDS011;21867;52.012;4.324;2023-06-05T20:16:30;9.90;;;3.07;;
35743;SDS011;21867;52.012;4.324;2023-06-05T20:18:58;9.10;;;3.60;;
35743;SDS011;21867;52.012;4.324;2023-06-05T20:27:05;7.97;;;3.63;;
35743;SDS011;21867;52.012;4.324;2023-06-05T20:29:33;9.10;;;2.77;;
35743;SDS011;21867;52.012;4.324;2023-06-05T20:32:01;6.87;;;3.10;;
35743;SDS011;21867;52.012;4.324;2023-06-05T20:34:29;8.47;;;4.17;;